Geneva, Indiana
Current Conditions -  °F | °C
As of 9:54 PM on Thursday 27 Nov 2014 (Local Time) from KFWA Reporting Station
Overcast Overcast  
Wind Chill: 12°   Ceiling: 5500
Heat Index: 24°   Visibility: 10mi
Dew Point: 19°   Wind: 13mph
Humidity: 81%   Direction: 270°W
Pressure: 30.36"   Gusts: NA
Location:  40.59°N, 84.96°W
Report Text: KFWA 280254Z 27011KT 10SM SCT029 OVC055 M04/M07 A3036 RMK AO2 SNE26 SLP290 P0000 60000 T10441072 51010
Loading
Personal Weather Stations






























Interactive Weather Map New forecast layout! Learn more

10-Day Weather Forecast

Advertisements
Track Severe Weather on mobile